createdAt,value
2023-03-11T00:00:28.153Z,98949.38
2023-03-11T00:02:59.387Z,98932.47
2023-03-11T00:05:38.958Z,98933.31
2023-03-11T00:08:08.093Z,98921.19
2023-03-11T00:10:40.182Z,98917.41
2023-03-11T00:13:10.314Z,98924.41
2023-03-11T00:15:41.620Z,98911.81
2023-03-11T00:18:09.381Z,98902.13
2023-03-11T00:20:42.218Z,98917.81
2023-03-11T00:23:11.664Z,98907.00
2023-03-11T00:25:44.261Z,98909.56
2023-03-11T00:28:15.360Z,98908.91
2023-03-11T00:30:44.313Z,98907.72
2023-03-11T00:33:14.833Z,98910.97
2023-03-11T00:35:43.311Z,98896.28
2023-03-11T00:38:15.719Z,98897.38
2023-03-11T00:40:45.870Z,98903.75
2023-03-11T00:43:15.288Z,98912.88
2023-03-11T00:45:43.132Z,98911.44
2023-03-11T00:48:12.598Z,98908.06
2023-03-11T00:50:41.001Z,98904.44
2023-03-11T00:53:08.846Z,98905.75
2023-03-11T00:55:36.739Z,98896.72
2023-03-11T00:58:10.057Z,98875.63
2023-03-11T01:00:49.654Z,98891.97
2023-03-11T01:03:17.241Z,98892.63
2023-03-11T01:05:46.146Z,98880.50
2023-03-11T01:08:13.746Z,98876.34
2023-03-11T01:10:41.309Z,98869.16
2023-03-11T01:13:08.808Z,98870.66
2023-03-11T01:15:47.556Z,98863.84
2023-03-11T01:18:16.105Z,98855.47
2023-03-11T01:20:44.087Z,98859.69
2023-03-11T01:23:12.979Z,98861.72
2023-03-11T01:25:40.546Z,98851.63
2023-03-11T01:28:08.677Z,98865.84
2023-03-11T01:30:38.654Z,98854.44
2023-03-11T01:33:07.666Z,98843.25
2023-03-11T01:35:35.746Z,98845.09
2023-03-11T01:38:03.410Z,98828.09
2023-03-11T01:40:35.970Z,98825.44
2023-03-11T01:43:28.282Z,98815.94
2023-03-11T01:45:56.349Z,98820.16
2023-03-11T01:48:26.691Z,98798.63
2023-03-11T01:50:57.484Z,98801.34
2023-03-11T01:53:27.650Z,98812.25
2023-03-11T01:55:55.893Z,98815.72
2023-03-11T01:58:34.738Z,98820.75
2023-03-11T02:01:03.462Z,98816.03
2023-03-11T02:03:34.793Z,98815.78
2023-03-11T02:06:06.279Z,98826.28
2023-03-11T02:08:37.065Z,98802.19
2023-03-11T02:11:10.193Z,98802.06
2023-03-11T02:13:41.067Z,98807.06
2023-03-11T02:16:09.126Z,98801.50
2023-03-11T02:18:37.571Z,98781.38
2023-03-11T02:21:22.722Z,98775.03
2023-03-11T02:24:15.278Z,98790.53
2023-03-11T02:26:55.024Z,98782.25
2023-03-11T02:29:25.430Z,98776.53
2023-03-11T02:31:58.705Z,98776.69
2023-03-11T02:34:30.493Z,98786.31
2023-03-11T02:36:59.242Z,98786.50
2023-03-11T02:39:32.471Z,98791.13
2023-03-11T02:42:04.890Z,98796.56
2023-03-11T02:44:33.552Z,98779.09
2023-03-11T02:47:04.284Z,98791.03
2023-03-11T02:49:32.966Z,98788.28
2023-03-11T02:52:00.629Z,98766.13
2023-03-11T02:54:29.838Z,98780.63
2023-03-11T02:56:58.406Z,98781.00
2023-03-11T02:59:28.018Z,98779.00
2023-03-11T03:01:56.453Z,98781.13
2023-03-11T03:04:24.180Z,98787.22
2023-03-11T03:06:51.797Z,98785.13
2023-03-11T03:09:26.146Z,98781.53
2023-03-11T03:11:53.690Z,98773.56
2023-03-11T03:14:21.346Z,98780.44
2023-03-11T03:16:49.808Z,98782.56
2023-03-11T03:19:19.565Z,98787.47
2023-03-11T03:21:49.533Z,98788.56
2023-03-11T03:24:17.576Z,98791.44
2023-03-11T03:26:45.231Z,98795.13
2023-03-11T03:29:13.000Z,98814.19
2023-03-11T03:31:45.398Z,98824.69
2023-03-11T03:34:13.562Z,98824.31
2023-03-11T03:36:41.315Z,98818.94
2023-03-11T03:39:11.437Z,98796.19
2023-03-11T03:41:38.957Z,98778.31
2023-03-11T03:44:08.445Z,98778.47
2023-03-11T03:46:38.539Z,98773.59
2023-03-11T03:49:08.147Z,98770.47
2023-03-11T03:51:38.256Z,98770.84
2023-03-11T03:54:13.283Z,98787.88
2023-03-11T03:56:40.956Z,98786.72
2023-03-11T03:59:08.707Z,98777.97
2023-03-11T04:01:41.455Z,98782.84
2023-03-11T04:04:11.860Z,98784.06
2023-03-11T04:06:40.760Z,98788.69
2023-03-11T04:09:12.287Z,98789.31
2023-03-11T04:11:39.904Z,98795.97
2023-03-11T04:14:09.885Z,98791.38
2023-03-11T04:16:43.448Z,98798.38
2023-03-11T04:19:12.925Z,98804.84
2023-03-11T04:21:40.796Z,98816.47
2023-03-11T04:24:11.808Z,98829.38
2023-03-11T04:26:40.424Z,98844.25
2023-03-11T04:29:12.417Z,98838.03
2023-03-11T04:31:43.482Z,98842.22
2023-03-11T04:34:11.015Z,98829.72
2023-03-11T04:36:39.733Z,98847.41
2023-03-11T04:39:08.443Z,98847.34
2023-03-11T04:41:41.403Z,98852.44
2023-03-11T04:44:11.080Z,98854.13
2023-03-11T04:46:39.013Z,98857.00
2023-03-11T04:49:09.080Z,98865.75
2023-03-11T04:51:37.060Z,98870.94
2023-03-11T04:54:05.010Z,98881.88
2023-03-11T04:56:32.829Z,98858.66
2023-03-11T04:59:03.748Z,98857.50
2023-03-11T05:01:33.216Z,98837.16
2023-03-11T05:04:06.003Z,98823.31
2023-03-11T05:06:33.861Z,98821.19
2023-03-11T05:09:04.816Z,98821.47
2023-03-11T05:11:35.766Z,98821.19
2023-03-11T05:14:03.893Z,98812.97
2023-03-11T05:16:31.430Z,98806.09
2023-03-11T05:18:58.938Z,98821.66
2023-03-11T05:21:26.415Z,98820.09
2023-03-11T05:23:54.077Z,98822.72
2023-03-11T05:26:21.562Z,98806.91
2023-03-11T05:28:48.983Z,98821.63
2023-03-11T05:31:16.585Z,98816.78
2023-03-11T05:33:44.287Z,98828.22
2023-03-11T05:36:13.834Z,98829.41
2023-03-11T05:38:44.090Z,98815.28
2023-03-11T05:41:12.040Z,98822.72
2023-03-11T05:43:41.886Z,98865.63
2023-03-11T05:46:10.417Z,98861.94
2023-03-11T05:48:38.947Z,98880.88
2023-03-11T05:51:11.679Z,98878.03
2023-03-11T05:53:49.647Z,98866.00
2023-03-11T05:56:23.735Z,98870.44
2023-03-11T05:58:52.223Z,98870.31
2023-03-11T06:01:20.886Z,98847.59
2023-03-11T06:03:49.341Z,98851.88
2023-03-11T06:06:17.836Z,98875.63
2023-03-11T06:08:49.857Z,98893.75
2023-03-11T06:11:19.046Z,98896.44
2023-03-11T06:13:47.174Z,98878.34
2023-03-11T06:16:15.115Z,98865.63
2023-03-11T06:18:42.915Z,98853.75
2023-03-11T06:21:17.324Z,98841.63
2023-03-11T06:23:45.017Z,98846.41
2023-03-11T06:26:14.847Z,98857.84
2023-03-11T06:28:45.277Z,98857.84
2023-03-11T06:31:33.290Z,98854.13
2023-03-11T06:34:06.966Z,98864.81
2023-03-11T06:36:34.747Z,98865.91
2023-03-11T06:39:02.284Z,98864.59
2023-03-11T06:41:30.022Z,98880.94
2023-03-11T06:43:59.756Z,98887.63
2023-03-11T06:46:28.532Z,98889.63
2023-03-11T06:48:57.667Z,98872.44
2023-03-11T06:51:25.482Z,98886.06
2023-03-11T06:53:54.089Z,98882.59
2023-03-11T06:56:23.838Z,98888.72
2023-03-11T06:58:59.401Z,98896.22
2023-03-11T07:01:31.296Z,98907.50
2023-03-11T07:04:00.823Z,98908.78
2023-03-11T07:06:34.260Z,98910.97
2023-03-11T07:09:13.597Z,98923.22
2023-03-11T07:11:43.902Z,98916.41
2023-03-11T07:14:16.528Z,98917.56
2023-03-11T07:16:47.980Z,98934.19
2023-03-11T07:19:26.838Z,98933.75
2023-03-11T07:21:57.995Z,98932.28
2023-03-11T07:24:25.446Z,98930.44
2023-03-11T07:26:52.791Z,98931.69
2023-03-11T07:29:20.981Z,98934.06
2023-03-11T07:31:49.311Z,98936.16
2023-03-11T07:34:19.698Z,98935.44
2023-03-11T07:36:47.233Z,98937.38
2023-03-11T07:39:17.762Z,98943.09
2023-03-11T07:41:45.601Z,98939.69
2023-03-11T07:44:16.142Z,98944.03
2023-03-11T07:46:44.531Z,98950.13
2023-03-11T07:49:12.323Z,98945.44
2023-03-11T07:51:44.022Z,98948.31
2023-03-11T07:54:12.766Z,98959.34
2023-03-11T07:56:40.392Z,98948.91
2023-03-11T07:59:08.053Z,98953.13
2023-03-11T08:01:41.256Z,98966.28
2023-03-11T08:04:14.355Z,98962.00
2023-03-11T08:06:44.780Z,98976.16
2023-03-11T08:09:13.625Z,98963.69
2023-03-11T08:11:41.723Z,98946.91
2023-03-11T08:14:09.719Z,98957.81
2023-03-11T08:16:40.164Z,98969.59
2023-03-11T08:19:07.797Z,98984.88
2023-03-11T08:21:35.279Z,99010.09
2023-03-11T08:24:04.524Z,99010.47
2023-03-11T08:26:36.356Z,99012.28
2023-03-11T08:29:04.406Z,99007.66
2023-03-11T08:31:34.009Z,99008.84
2023-03-11T08:34:04.846Z,98976.28
2023-03-11T08:36:33.094Z,98937.16
2023-03-11T08:39:00.665Z,98973.78
2023-03-11T08:41:28.685Z,98994.69
2023-03-11T08:43:56.345Z,98988.50
2023-03-11T08:46:27.472Z,98983.25
2023-03-11T08:48:56.986Z,98976.16
2023-03-11T08:51:26.367Z,98973.84
2023-03-11T08:53:54.257Z,98991.22
2023-03-11T08:56:23.935Z,98987.59
2023-03-11T08:58:51.880Z,98997.44
2023-03-11T09:01:20.346Z,99000.59
2023-03-11T09:03:48.106Z,99000.78
2023-03-11T09:06:17.532Z,99010.91
2023-03-11T09:08:48.920Z,99011.34
2023-03-11T09:11:17.824Z,99005.66
2023-03-11T09:13:45.494Z,98993.72
2023-03-11T09:16:14.948Z,98997.94
2023-03-11T09:18:42.770Z,98991.22
2023-03-11T09:21:11.448Z,98996.38
2023-03-11T09:23:40.309Z,99003.97
2023-03-11T09:26:08.561Z,98997.41
2023-03-11T09:28:36.026Z,98998.59
2023-03-11T09:31:03.591Z,98996.06
2023-03-11T09:33:31.060Z,98995.44
2023-03-11T09:36:02.033Z,98998.25
2023-03-11T09:38:32.723Z,99006.88
2023-03-11T09:41:10.680Z,98995.03
2023-03-11T09:43:56.412Z,99011.19
2023-03-11T09:46:45.227Z,99012.53
2023-03-11T09:49:40.771Z,99027.75
2023-03-11T09:52:16.138Z,99030.66
2023-03-11T09:54:54.891Z,99036.16
2023-03-11T09:57:26.798Z,99027.56
2023-03-11T09:59:55.279Z,99036.25
2023-03-11T10:02:26.836Z,99032.63
2023-03-11T10:05:09.931Z,99030.53
2023-03-11T10:07:41.759Z,99025.22
2023-03-11T10:10:14.428Z,99028.88
2023-03-11T10:13:06.969Z,99029.00
2023-03-11T10:15:56.599Z,99027.34
2023-03-11T10:18:39.284Z,99041.94
2023-03-11T10:21:14.563Z,99053.75
2023-03-11T10:24:03.350Z,99062.25
2023-03-11T10:26:42.169Z,99055.28
2023-03-11T10:29:30.008Z,99053.16
2023-03-11T10:32:05.075Z,99063.03
2023-03-11T10:34:39.525Z,99070.38
2023-03-11T10:37:21.353Z,99054.31
2023-03-11T10:39:49.101Z,99055.63
2023-03-11T10:42:25.098Z,99068.69
2023-03-11T10:44:52.731Z,99071.09
2023-03-11T10:47:23.403Z,99067.00
2023-03-11T10:49:52.514Z,99067.47
2023-03-11T10:52:20.220Z,99069.28
2023-03-11T10:54:58.702Z,99063.47
2023-03-11T10:57:29.661Z,99066.81
2023-03-11T11:00:00.063Z,99080.81
2023-03-11T11:02:30.252Z,99079.00
2023-03-11T11:05:07.748Z,99076.63
2023-03-11T11:07:37.609Z,99072.81
2023-03-11T11:10:14.248Z,99079.22
2023-03-11T11:12:56.559Z,99080.03
2023-03-11T11:15:33.016Z,99091.75
2023-03-11T11:18:02.948Z,99078.16
2023-03-11T11:20:31.721Z,99082.06
2023-03-11T11:23:02.242Z,99078.38
2023-03-11T11:25:38.948Z,99089.13
2023-03-11T11:28:16.365Z,99082.47
2023-03-11T11:31:02.026Z,99082.13
2023-03-11T11:34:01.646Z,99083.59
2023-03-11T11:36:32.556Z,99084.38
2023-03-11T11:39:04.953Z,99055.13
2023-03-11T11:41:36.754Z,99059.25
2023-03-11T11:44:06.944Z,99047.34
2023-03-11T11:46:39.810Z,99052.34
2023-03-11T11:49:27.494Z,99055.94
2023-03-11T11:52:14.318Z,99051.69
2023-03-11T11:55:25.300Z,99048.41
2023-03-11T11:57:52.823Z,99041.50
2023-03-11T12:00:32.695Z,99043.69
2023-03-11T12:03:36.983Z,99043.19
2023-03-11T12:06:31.628Z,99026.94
2023-03-11T12:09:35.377Z,99023.88
2023-03-11T12:12:33.301Z,99034.22
2023-03-11T12:15:03.968Z,99020.63
2023-03-11T12:17:33.816Z,99027.22
2023-03-11T12:20:05.819Z,99022.09
2023-03-11T12:22:58.117Z,99025.72
2023-03-11T12:25:32.799Z,99025.16
2023-03-11T12:28:13.243Z,99024.44
2023-03-11T12:30:53.405Z,99018.66
2023-03-11T12:33:37.054Z,99025.66
2023-03-11T12:36:06.225Z,99017.78
2023-03-11T12:38:35.398Z,99021.47
2023-03-11T12:41:14.661Z,99024.81
2023-03-11T12:43:41.963Z,99028.06
2023-03-11T12:46:14.453Z,99025.56
2023-03-11T12:48:46.035Z,99023.59
2023-03-11T12:51:37.657Z,99018.09
2023-03-11T12:54:21.751Z,99019.53
2023-03-11T12:56:56.945Z,99012.13
2023-03-11T13:00:00.600Z,99009.72
2023-03-11T13:02:47.556Z,99007.84
2023-03-11T13:05:28.338Z,99012.69
2023-03-11T13:08:01.055Z,99012.41
2023-03-11T13:10:44.654Z,99018.06
2023-03-11T13:13:30.488Z,99007.00
2023-03-11T13:15:58.798Z,99016.06
2023-03-11T13:18:28.298Z,99015.88
2023-03-11T13:20:59.346Z,99012.69
2023-03-11T13:23:28.335Z,99016.84
2023-03-11T13:25:55.654Z,99019.47
2023-03-11T13:29:05.280Z,99012.47
2023-03-11T13:31:37.579Z,99012.28
2023-03-11T13:34:16.125Z,99018.50
2023-03-11T13:36:46.648Z,99013.44
2023-03-11T13:39:37.615Z,99013.47
2023-03-11T13:42:17.451Z,99017.66
2023-03-11T13:44:47.417Z,99010.97
2023-03-11T13:47:17.934Z,99009.72
2023-03-11T13:50:03.328Z,99017.44
2023-03-11T13:52:35.576Z,99012.19
2023-03-11T13:55:07.634Z,99012.63
2023-03-11T13:57:37.577Z,99013.91
2023-03-11T14:00:17.748Z,99021.69
2023-03-11T14:02:48.591Z,99013.69
2023-03-11T14:05:20.229Z,99007.81
2023-03-11T14:07:47.669Z,99009.66
2023-03-11T14:10:24.702Z,99008.31
2023-03-11T14:13:04.211Z,99010.88
2023-03-11T14:15:43.914Z,99008.75
2023-03-11T14:18:31.188Z,99010.41
2023-03-11T14:20:59.509Z,99023.94
2023-03-11T14:23:30.822Z,99021.88
2023-03-11T14:26:00.427Z,99027.56
2023-03-11T14:28:31.088Z,99025.97
2023-03-11T14:31:00.513Z,99027.53
2023-03-11T14:33:28.269Z,99016.25
2023-03-11T14:36:15.705Z,99026.63
2023-03-11T14:38:44.303Z,99031.16
2023-03-11T14:41:15.719Z,99029.78
2023-03-11T14:43:49.607Z,99032.66
2023-03-11T14:46:28.725Z,99031.81
2023-03-11T14:48:58.071Z,99036.44
2023-03-11T14:51:33.399Z,99042.25
2023-03-11T14:54:17.306Z,99028.38
2023-03-11T14:56:51.248Z,99030.31
2023-03-11T14:59:26.872Z,99032.25
2023-03-11T15:01:59.196Z,99022.50
2023-03-11T15:04:38.011Z,99025.72
2023-03-11T15:07:06.071Z,99022.94
2023-03-11T15:09:52.057Z,99027.19
2023-03-11T15:12:34.382Z,99032.53
2023-03-11T15:15:01.921Z,99027.81
2023-03-11T15:17:41.342Z,99037.13
2023-03-11T15:20:35.300Z,99050.03
2023-03-11T15:23:07.675Z,99053.41
2023-03-11T15:25:38.723Z,99052.03
2023-03-11T15:28:27.544Z,99050.75
2023-03-11T15:31:22.675Z,99052.09
2023-03-11T15:33:53.685Z,99048.44
2023-03-11T15:36:35.856Z,99059.19
2023-03-11T15:39:21.555Z,99059.00
2023-03-11T15:42:13.720Z,99060.75
2023-03-11T15:44:51.660Z,99076.47
2023-03-11T15:47:21.193Z,99076.63
2023-03-11T15:49:49.196Z,99085.97
2023-03-11T15:52:20.134Z,99079.13
2023-03-11T15:54:55.410Z,99087.06
2023-03-11T15:57:26.953Z,99078.28
2023-03-11T16:00:03.742Z,99095.38
2023-03-11T16:02:34.421Z,99092.03
2023-03-11T16:05:01.938Z,99102.16
2023-03-11T16:07:38.985Z,99101.38
2023-03-11T16:10:08.382Z,99111.44
2023-03-11T16:12:35.779Z,99111.69
2023-03-11T16:15:04.205Z,99120.56
2023-03-11T16:17:46.761Z,99114.28
2023-03-11T16:20:16.379Z,99113.44
2023-03-11T16:22:43.822Z,99116.59
2023-03-11T16:25:20.558Z,99126.25
2023-03-11T16:27:50.669Z,99127.16
2023-03-11T16:30:18.964Z,99127.03
2023-03-11T16:32:46.369Z,99124.59
2023-03-11T16:35:14.084Z,99126.47
2023-03-11T16:37:43.339Z,99122.78
2023-03-11T16:40:20.390Z,99132.84
2023-03-11T16:42:49.527Z,99149.38
2023-03-11T16:45:18.084Z,99152.94
2023-03-11T16:47:45.438Z,99151.81
2023-03-11T16:50:13.203Z,99163.88
2023-03-11T16:52:40.529Z,99162.28
2023-03-11T16:55:08.422Z,99167.06
2023-03-11T16:57:37.826Z,99173.75
2023-03-11T17:00:07.039Z,99180.19
2023-03-11T17:02:34.381Z,99173.41
2023-03-11T17:05:01.863Z,99180.13
2023-03-11T17:07:29.419Z,99183.50
2023-03-11T17:09:58.114Z,99188.91
2023-03-11T17:12:26.969Z,99193.50
2023-03-11T17:14:54.547Z,99196.03
2023-03-11T17:17:23.003Z,99201.84
2023-03-11T17:19:50.371Z,99199.81
2023-03-11T17:22:17.873Z,99201.84
2023-03-11T17:24:45.175Z,99202.72
2023-03-11T17:27:12.832Z,99211.59
2023-03-11T17:29:40.223Z,99214.84
2023-03-11T17:32:08.032Z,99213.47
2023-03-11T17:34:35.399Z,99226.78
2023-03-11T17:37:02.760Z,99234.41
2023-03-11T17:39:30.174Z,99239.78
2023-03-11T17:41:57.629Z,99247.84
2023-03-11T17:44:24.960Z,99249.78
2023-03-11T17:46:52.291Z,99255.44
2023-03-11T17:49:19.692Z,99260.28
2023-03-11T17:51:47.150Z,99267.16
2023-03-11T17:54:14.521Z,99270.81
2023-03-11T17:56:41.787Z,99286.09
2023-03-11T17:59:09.146Z,99285.81
2023-03-11T18:01:36.689Z,99290.75
2023-03-11T18:04:04.498Z,99298.06
2023-03-11T18:06:31.817Z,99296.09
2023-03-11T18:08:59.359Z,99305.84
2023-03-11T18:11:27.881Z,99304.69
2023-03-11T18:13:55.449Z,99313.00
2023-03-11T18:16:28.917Z,99327.91
2023-03-11T18:18:57.115Z,99334.75
2023-03-11T18:21:29.113Z,99341.25
2023-03-11T18:23:58.670Z,99336.31
2023-03-11T18:26:28.765Z,99351.47
2023-03-11T18:28:58.003Z,99350.53
2023-03-11T18:31:27.101Z,99353.19
2023-03-11T18:33:59.306Z,99360.25
2023-03-11T18:36:27.937Z,99369.16
2023-03-11T18:38:57.057Z,99377.09
2023-03-11T18:41:27.246Z,99379.19
2023-03-11T18:43:57.454Z,99386.56
2023-03-11T18:46:28.376Z,99393.28
2023-03-11T18:48:57.619Z,99404.88
2023-03-11T18:51:26.101Z,99407.47
2023-03-11T18:53:53.465Z,99410.31
2023-03-11T18:56:21.007Z,99411.44
2023-03-11T18:58:48.452Z,99420.66
2023-03-11T19:01:24.916Z,99436.13
2023-03-11T19:03:55.944Z,99437.50
2023-03-11T19:06:25.188Z,99446.66
2023-03-11T19:08:53.265Z,99443.56
2023-03-11T19:11:23.000Z,99449.28
2023-03-11T19:13:51.040Z,99455.97
2023-03-11T19:16:21.674Z,99463.84
2023-03-11T19:18:50.202Z,99461.25
2023-03-11T19:21:18.004Z,99461.19
2023-03-11T19:23:45.804Z,99477.88
2023-03-11T19:26:13.666Z,99462.00
2023-03-11T19:28:42.004Z,99468.28
2023-03-11T19:31:09.370Z,99469.81
2023-03-11T19:33:36.706Z,99480.94
2023-03-11T19:36:06.091Z,99477.69
2023-03-11T19:38:34.151Z,99484.50
2023-03-11T19:41:12.254Z,99482.41
2023-03-11T19:43:40.164Z,99498.16
2023-03-11T19:46:10.297Z,99499.06
2023-03-11T19:48:37.695Z,99496.97
2023-03-11T19:51:08.120Z,99498.31
2023-03-11T19:53:36.603Z,99501.47
2023-03-11T19:56:04.873Z,99511.47
2023-03-11T19:58:32.315Z,99516.84
2023-03-11T20:00:59.865Z,99535.94
2023-03-11T20:03:27.770Z,99534.44
2023-03-11T20:05:57.929Z,99531.19
2023-03-11T20:08:25.988Z,99537.34
2023-03-11T20:10:53.841Z,99546.63
2023-03-11T20:13:22.335Z,99557.03
2023-03-11T20:15:50.426Z,99565.59
2023-03-11T20:18:18.319Z,99581.06
2023-03-11T20:20:47.080Z,99579.88
2023-03-11T20:23:14.616Z,99593.44
2023-03-11T20:25:42.540Z,99597.69
2023-03-11T20:28:10.685Z,99599.72
2023-03-11T20:30:39.482Z,99613.41
2023-03-11T20:33:07.889Z,99618.47
2023-03-11T20:35:35.391Z,99623.13
2023-03-11T20:38:03.229Z,99622.94
2023-03-11T20:40:31.029Z,99636.16
2023-03-11T20:42:58.417Z,99623.50
2023-03-11T20:45:25.863Z,99647.31
2023-03-11T20:47:54.040Z,99656.16
2023-03-11T20:50:23.040Z,99658.34
2023-03-11T20:52:50.976Z,99658.44
2023-03-11T20:55:18.494Z,99668.72
2023-03-11T20:57:46.692Z,99669.00
2023-03-11T21:00:14.770Z,99672.97
2023-03-11T21:02:43.354Z,99680.41
2023-03-11T21:05:11.903Z,99686.38
2023-03-11T21:07:40.056Z,99688.41
2023-03-11T21:10:12.084Z,99684.94
2023-03-11T21:12:39.728Z,99697.13
2023-03-11T21:15:09.184Z,99694.34
2023-03-11T21:17:37.896Z,99697.63
2023-03-11T21:20:06.388Z,99693.78
2023-03-11T21:22:33.998Z,99691.91
2023-03-11T21:25:01.545Z,99699.28
2023-03-11T21:27:29.011Z,99696.13
2023-03-11T21:29:56.873Z,99705.97
2023-03-11T21:32:25.903Z,99713.53
2023-03-11T21:34:57.805Z,99720.09
2023-03-11T21:37:26.256Z,99717.66
2023-03-11T21:39:53.951Z,99718.88
2023-03-11T21:42:21.946Z,99724.56
2023-03-11T21:44:51.405Z,99725.31
2023-03-11T21:47:19.883Z,99734.59
2023-03-11T21:49:47.425Z,99741.75
2023-03-11T21:52:14.908Z,99732.16
2023-03-11T21:54:42.445Z,99732.56
2023-03-11T21:57:11.331Z,99736.91
2023-03-11T21:59:38.733Z,99740.69
2023-03-11T22:02:06.379Z,99737.31
2023-03-11T22:04:33.780Z,99739.00
2023-03-11T22:07:01.160Z,99737.63
2023-03-11T22:09:28.579Z,99743.25
2023-03-11T22:11:56.377Z,99746.22
2023-03-11T22:14:24.712Z,99759.16
2023-03-11T22:16:52.276Z,99750.53
2023-03-11T22:19:19.839Z,99762.34
2023-03-11T22:21:52.284Z,99758.31
2023-03-11T22:24:19.779Z,99756.66
2023-03-11T22:26:47.082Z,99757.97
2023-03-11T22:29:15.454Z,99756.56
2023-03-11T22:31:42.823Z,99763.66
2023-03-11T22:34:10.290Z,99762.53
2023-03-11T22:36:37.692Z,99763.38
2023-03-11T22:39:05.058Z,99768.75
2023-03-11T22:41:32.837Z,99783.53
2023-03-11T22:44:00.451Z,99776.53
2023-03-11T22:46:28.156Z,99782.69
2023-03-11T22:48:55.727Z,99799.28
2023-03-11T22:51:23.339Z,99808.19
2023-03-11T22:53:50.864Z,99797.47
2023-03-11T22:56:19.750Z,99806.91
2023-03-11T22:58:47.306Z,99807.91
2023-03-11T23:01:16.497Z,99818.69
2023-03-11T23:03:44.243Z,99817.16
2023-03-11T23:06:15.027Z,99801.69
2023-03-11T23:08:42.760Z,99807.88
2023-03-11T23:11:12.441Z,99805.63
2023-03-11T23:13:41.863Z,99814.63
2023-03-11T23:16:16.563Z,99810.81
2023-03-11T23:18:46.469Z,99811.34
2023-03-11T23:21:22.825Z,99820.81
2023-03-11T23:23:51.848Z,99825.25
2023-03-11T23:26:20.306Z,99828.56
2023-03-11T23:28:51.182Z,99818.19
2023-03-11T23:31:20.603Z,99825.09
2023-03-11T23:33:48.165Z,99835.91
2023-03-11T23:36:18.368Z,99835.41
2023-03-11T23:38:47.309Z,99830.91
2023-03-11T23:41:18.063Z,99843.63
2023-03-11T23:43:49.968Z,99857.31
2023-03-11T23:46:17.555Z,99865.91
2023-03-11T23:48:45.000Z,99862.19
2023-03-11T23:51:12.761Z,99870.06
2023-03-11T23:53:40.465Z,99872.97
2023-03-11T23:56:17.155Z,99880.03
2023-03-11T23:58:45.844Z,99873.78
